createdAt,value
2019-03-25T00:00:29.608Z,11.37
2019-03-25T00:03:11.139Z,11.17
2019-03-25T00:05:36.714Z,13.48
2019-03-25T00:08:05.587Z,10.90
2019-03-25T00:10:33.768Z,10.53
2019-03-25T00:13:03.442Z,11.83
2019-03-25T00:15:31.078Z,13.30
2019-03-25T00:18:15.329Z,10.40
2019-03-25T00:23:27.793Z,11.97
2019-03-25T00:25:54.981Z,11.65
2019-03-25T00:28:21.859Z,12.03
2019-03-25T00:30:48.608Z,11.07
2019-03-25T00:33:15.223Z,11.53
2019-03-25T00:35:41.846Z,12.87
2019-03-25T00:38:08.763Z,11.00
2019-03-25T00:40:35.392Z,10.47
2019-03-25T00:43:01.991Z,10.78
2019-03-25T00:45:28.897Z,10.27
2019-03-25T00:47:55.733Z,10.50
2019-03-25T00:50:22.337Z,9.85
2019-03-25T00:52:50.086Z,12.23
2019-03-25T00:55:16.786Z,9.73
2019-03-25T00:57:43.552Z,10.77
2019-03-25T01:00:10.594Z,10.37
2019-03-25T01:02:41.777Z,10.18
2019-03-25T01:05:09.796Z,10.18
2019-03-25T01:07:48.156Z,14.40
2019-03-25T01:13:06.420Z,11.50
2019-03-25T01:15:37.733Z,10.70
2019-03-25T01:18:16.674Z,11.83
2019-03-25T01:20:39.072Z,9.77
2019-03-25T01:23:10.507Z,10.87
2019-03-25T01:25:41.186Z,16.37
2019-03-25T01:28:14.520Z,11.40
2019-03-25T01:30:42.133Z,12.30
2019-03-25T01:33:20.636Z,11.00
2019-03-25T01:35:50.875Z,10.82
2019-03-25T01:38:20.276Z,12.67
2019-03-25T01:40:48.654Z,12.80
2019-03-25T01:43:18.073Z,11.70
2019-03-25T01:45:47.914Z,15.87
2019-03-25T01:48:17.194Z,13.87
2019-03-25T01:50:48.620Z,12.10
2019-03-25T01:56:16.778Z,13.57
2019-03-25T01:58:48.934Z,14.83
2019-03-25T02:01:16.931Z,15.40
2019-03-25T02:03:43.603Z,12.83
2019-03-25T02:06:10.219Z,13.73
2019-03-25T02:08:37.085Z,13.05
2019-03-25T02:11:03.944Z,14.90
2019-03-25T02:13:30.806Z,14.73
2019-03-25T02:15:58.128Z,14.50
2019-03-25T02:18:47.110Z,14.70
2019-03-25T02:20:57.520Z,12.50
2019-03-25T02:23:25.394Z,14.30
2019-03-25T02:25:54.091Z,15.90
2019-03-25T02:28:23.893Z,15.80
2019-03-25T02:30:53.993Z,15.13
2019-03-25T02:33:21.691Z,14.17
2019-03-25T02:35:49.340Z,16.60
2019-03-25T02:38:16.480Z,14.17
2019-03-25T02:43:34.746Z,14.50
2019-03-25T02:46:02.361Z,13.17
2019-03-25T02:48:30.069Z,15.10
2019-03-25T02:50:57.307Z,16.33
2019-03-25T02:53:27.159Z,15.43
2019-03-25T02:55:56.065Z,14.60
2019-03-25T02:58:24.444Z,13.57
2019-03-25T03:00:53.396Z,13.57
2019-03-25T03:03:29.313Z,14.30
2019-03-25T03:05:55.781Z,14.97
2019-03-25T03:08:23.672Z,16.00
2019-03-25T03:10:54.857Z,15.00
2019-03-25T03:13:32.857Z,16.40
2019-03-25T03:16:04.027Z,18.00
2019-03-25T03:18:33.776Z,16.12
2019-03-25T03:21:06.215Z,14.17
2019-03-25T03:23:38.735Z,15.07
2019-03-25T03:26:09.457Z,15.67
2019-03-25T03:28:36.330Z,14.07
2019-03-25T03:31:04.010Z,16.10
2019-03-25T03:33:30.614Z,16.70
2019-03-25T03:35:58.989Z,15.60
2019-03-25T03:38:30.235Z,15.77
2019-03-25T03:40:59.744Z,17.00
2019-03-25T03:43:30.405Z,15.13
2019-03-25T03:45:58.355Z,17.97
2019-03-25T03:48:27.963Z,15.90
2019-03-25T03:51:01.480Z,15.60
2019-03-25T03:53:34.552Z,14.47
2019-03-25T03:56:12.972Z,14.73
2019-03-25T03:58:31.230Z,15.97
2019-03-25T04:01:00.181Z,15.63
2019-03-25T04:03:26.739Z,16.33
2019-03-25T04:05:57.020Z,16.57
2019-03-25T04:08:24.999Z,15.60
2019-03-25T04:10:56.805Z,15.67
2019-03-25T04:13:23.979Z,17.20
2019-03-25T04:15:50.594Z,15.20
2019-03-25T04:18:22.415Z,17.27
2019-03-25T04:20:49.730Z,15.47
2019-03-25T04:23:16.329Z,17.23
2019-03-25T04:25:43.244Z,14.15
2019-03-25T04:28:09.928Z,17.57
2019-03-25T04:30:36.898Z,18.77
2019-03-25T04:33:03.825Z,18.40
2019-03-25T04:35:30.472Z,16.37
2019-03-25T04:37:57.604Z,17.27
2019-03-25T04:40:24.451Z,22.23
2019-03-25T04:42:51.078Z,16.42
2019-03-25T04:45:17.671Z,15.80
2019-03-25T04:47:44.260Z,15.10
2019-03-25T04:50:11.104Z,20.63
2019-03-25T04:52:38.082Z,19.67
2019-03-25T04:55:04.998Z,14.20
2019-03-25T04:57:32.993Z,15.03
2019-03-25T05:00:00.528Z,16.40
2019-03-25T05:02:27.434Z,16.25
2019-03-25T05:04:54.236Z,19.13
2019-03-25T05:07:21.016Z,14.90
2019-03-25T05:09:47.647Z,16.13
2019-03-25T05:12:14.573Z,15.80
2019-03-25T05:14:41.139Z,18.47
2019-03-25T05:17:07.765Z,17.70
2019-03-25T05:19:34.724Z,20.30
2019-03-25T05:22:01.469Z,19.67
2019-03-25T05:24:28.040Z,21.33
2019-03-25T05:26:55.205Z,19.13
2019-03-25T05:29:21.896Z,16.27
2019-03-25T05:31:48.539Z,18.43
2019-03-25T05:34:15.398Z,15.60
2019-03-25T05:36:42.096Z,18.47
2019-03-25T05:39:09.028Z,17.07
2019-03-25T05:41:35.732Z,20.93
2019-03-25T05:44:02.318Z,15.27
2019-03-25T05:46:28.973Z,16.43
2019-03-25T05:48:55.968Z,19.07
2019-03-25T05:51:22.616Z,17.47
2019-03-25T05:53:49.249Z,17.63
2019-03-25T05:56:16.697Z,20.17
2019-03-25T05:58:43.395Z,20.73
2019-03-25T06:01:10.315Z,19.37
2019-03-25T06:03:36.918Z,17.83
2019-03-25T06:06:03.815Z,19.27
2019-03-25T06:08:30.535Z,18.03
2019-03-25T06:10:57.192Z,17.37
2019-03-25T06:13:23.838Z,16.05
2019-03-25T06:15:50.498Z,16.67
2019-03-25T06:18:20.302Z,25.50
2019-03-25T06:23:31.823Z,23.52
2019-03-25T06:25:58.485Z,20.57
2019-03-25T06:28:25.129Z,20.50
2019-03-25T06:30:51.774Z,20.83
2019-03-25T06:33:18.532Z,22.23
2019-03-25T06:35:45.250Z,25.50
2019-03-25T06:38:13.001Z,22.37
2019-03-25T06:40:39.879Z,21.50
2019-03-25T06:43:06.518Z,23.53
2019-03-25T06:45:33.198Z,18.27
2019-03-25T06:48:01.306Z,20.43
2019-03-25T06:50:28.379Z,20.13
2019-03-25T06:52:55.518Z,21.63
2019-03-25T06:55:22.108Z,20.47
2019-03-25T06:57:48.725Z,19.33
2019-03-25T07:00:15.978Z,22.45
2019-03-25T07:02:42.895Z,21.77
2019-03-25T07:05:10.686Z,26.48
2019-03-25T07:07:37.486Z,26.03
2019-03-25T07:10:04.088Z,20.97
2019-03-25T07:12:31.250Z,24.73
2019-03-25T07:14:58.723Z,28.53
2019-03-25T07:17:25.470Z,30.30
2019-03-25T07:19:52.104Z,26.23
2019-03-25T07:22:18.983Z,26.47
2019-03-25T07:24:45.649Z,36.10
2019-03-25T07:27:12.272Z,32.27
2019-03-25T07:29:39.416Z,40.23
2019-03-25T07:32:06.221Z,32.93
2019-03-25T07:34:33.013Z,36.03
2019-03-25T07:37:00.672Z,42.47
2019-03-25T07:39:27.482Z,42.80
2019-03-25T07:41:55.185Z,37.78
2019-03-25T07:44:21.832Z,36.47
2019-03-25T07:46:48.565Z,49.60
2019-03-25T07:49:15.458Z,51.37
2019-03-25T07:51:42.191Z,42.23
2019-03-25T07:54:09.094Z,44.97
2019-03-25T07:56:35.742Z,45.93
2019-03-25T07:59:02.410Z,43.00
2019-03-25T08:01:29.391Z,50.60
2019-03-25T08:03:56.048Z,49.00
2019-03-25T08:06:23.900Z,53.57
2019-03-25T08:08:50.520Z,57.17
2019-03-25T08:11:17.194Z,49.90
2019-03-25T08:13:44.330Z,47.55
2019-03-25T08:16:11.326Z,53.67
2019-03-25T08:18:38.255Z,48.65
2019-03-25T08:21:24.959Z,48.57
2019-03-25T08:23:55.545Z,50.80
2019-03-25T08:26:23.555Z,53.13
2019-03-25T08:28:54.636Z,49.58
2019-03-25T08:31:22.356Z,48.40
2019-03-25T08:33:52.132Z,46.42
2019-03-25T08:36:20.705Z,54.13
2019-03-25T08:38:50.101Z,48.83
2019-03-25T08:41:21.818Z,52.90
2019-03-25T08:43:50.463Z,46.87
2019-03-25T08:46:20.996Z,47.38
2019-03-25T08:48:49.051Z,52.47
2019-03-25T08:51:16.212Z,53.63
2019-03-25T08:53:45.826Z,48.60
2019-03-25T08:56:13.121Z,51.60
2019-03-25T08:58:44.043Z,56.17
2019-03-25T09:01:11.740Z,61.73
2019-03-25T09:03:54.630Z,54.20
2019-03-25T09:06:33.062Z,55.80
2019-03-25T09:09:01.744Z,49.40
2019-03-25T09:11:29.475Z,46.83
2019-03-25T09:14:03.332Z,50.93
2019-03-25T09:16:32.097Z,48.03
2019-03-25T09:18:59.206Z,50.27
2019-03-25T09:21:32.468Z,45.80
2019-03-25T09:24:00.714Z,47.67
2019-03-25T09:26:27.817Z,52.90
2019-03-25T09:29:00.741Z,51.67
2019-03-25T09:31:36.730Z,47.30
2019-03-25T09:33:59.529Z,49.60
2019-03-25T09:36:27.397Z,55.63
2019-03-25T09:41:44.046Z,52.73
2019-03-25T09:44:13.535Z,47.70
2019-03-25T09:46:41.152Z,49.70
2019-03-25T09:49:22.813Z,51.77
2019-03-25T09:51:41.801Z,46.80
2019-03-25T09:54:12.690Z,47.27
2019-03-25T09:56:42.800Z,48.30
2019-03-25T09:59:12.358Z,45.20
2019-03-25T10:01:39.032Z,45.60
2019-03-25T10:04:08.615Z,47.33
2019-03-25T10:06:36.204Z,48.45
2019-03-25T10:09:07.164Z,50.40
2019-03-25T10:11:37.427Z,48.05
2019-03-25T10:14:04.297Z,44.23
2019-03-25T10:19:21.373Z,47.90
2019-03-25T10:21:48.468Z,43.53
2019-03-25T10:24:15.225Z,43.57
2019-03-25T10:26:42.329Z,53.90
2019-03-25T10:29:09.198Z,51.50
2019-03-25T10:31:36.199Z,47.33
2019-03-25T10:34:03.152Z,42.33
2019-03-25T10:36:31.698Z,50.00
2019-03-25T10:38:58.124Z,48.47
2019-03-25T10:41:25.051Z,49.63
2019-03-25T10:43:51.836Z,46.43
2019-03-25T10:46:18.462Z,45.87
2019-03-25T10:48:45.164Z,47.43
2019-03-25T10:51:11.801Z,42.70
2019-03-25T10:53:38.577Z,43.20
2019-03-25T10:56:05.588Z,49.40
2019-03-25T10:58:32.519Z,46.45
2019-03-25T11:00:59.339Z,41.83
2019-03-25T11:03:26.307Z,43.37
2019-03-25T11:05:53.119Z,47.33
2019-03-25T11:08:19.757Z,54.43
2019-03-25T11:10:47.733Z,49.67
2019-03-25T11:13:14.330Z,43.60
2019-03-25T11:15:41.988Z,48.25
2019-03-25T11:18:09.044Z,47.50
2019-03-25T11:20:35.660Z,47.27
2019-03-25T11:23:02.678Z,47.45
2019-03-25T11:25:29.426Z,46.10
2019-03-25T11:27:57.637Z,49.25
2019-03-25T11:30:24.303Z,53.20
2019-03-25T11:32:51.388Z,19.63
2019-03-25T11:35:18.357Z,27.20
2019-03-25T11:37:44.984Z,24.83
2019-03-25T11:40:12.359Z,29.73
2019-03-25T11:42:39.044Z,31.63
2019-03-25T11:45:05.695Z,25.37
2019-03-25T11:47:32.784Z,32.63
2019-03-25T11:49:59.404Z,27.57
2019-03-25T11:52:26.317Z,17.53
2019-03-25T11:54:52.948Z,15.43
2019-03-25T11:57:19.827Z,17.93
2019-03-25T11:59:46.815Z,21.73
2019-03-25T12:02:17.789Z,20.53
2019-03-25T12:04:44.059Z,18.80
2019-03-25T12:07:11.738Z,15.13
2019-03-25T12:09:38.619Z,18.77
2019-03-25T12:12:05.283Z,30.70
2019-03-25T12:14:31.998Z,27.20
2019-03-25T12:16:59.025Z,30.00
2019-03-25T12:22:12.930Z,61.93
2019-03-25T12:27:24.109Z,62.17
2019-03-25T12:29:50.755Z,60.10
2019-03-25T12:32:17.639Z,54.53
2019-03-25T12:34:45.823Z,52.50
2019-03-25T12:37:13.805Z,50.88
2019-03-25T12:39:40.843Z,53.83
2019-03-25T12:42:07.625Z,51.83
2019-03-25T12:44:34.212Z,54.00
2019-03-25T12:47:00.956Z,54.13
2019-03-25T12:49:27.897Z,49.67
2019-03-25T12:51:54.510Z,59.30
2019-03-25T12:54:21.143Z,52.03
2019-03-25T12:56:48.100Z,47.67
2019-03-25T12:59:14.736Z,40.17
2019-03-25T13:01:52.106Z,22.43
2019-03-25T13:04:10.148Z,21.10
2019-03-25T13:06:37.198Z,23.13
2019-03-25T13:09:04.133Z,22.20
2019-03-25T13:11:31.120Z,18.23
2019-03-25T13:13:57.881Z,20.43
2019-03-25T13:19:09.780Z,27.77
2019-03-25T13:21:36.614Z,21.93
2019-03-25T13:24:03.535Z,22.77
2019-03-25T13:26:30.166Z,15.43
2019-03-25T13:29:02.070Z,10.03
2019-03-25T13:31:25.425Z,8.73
2019-03-25T13:33:52.302Z,3.03
2019-03-25T13:36:19.398Z,2.20
2019-03-25T13:38:46.051Z,2.30
2019-03-25T13:41:13.747Z,2.13
2019-03-25T13:43:40.727Z,2.65
2019-03-25T13:46:07.320Z,2.87
2019-03-25T13:48:34.230Z,3.40
2019-03-25T13:51:00.816Z,4.40
2019-03-25T13:53:27.712Z,3.73
2019-03-25T13:55:54.392Z,3.80
2019-03-25T13:58:21.019Z,4.63
2019-03-25T14:00:47.879Z,3.67
2019-03-25T14:03:14.730Z,4.97
2019-03-25T14:05:41.484Z,3.87
2019-03-25T14:08:08.103Z,4.40
2019-03-25T14:10:35.057Z,3.93
2019-03-25T14:13:01.957Z,4.37
2019-03-25T14:15:28.560Z,3.77
2019-03-25T14:17:55.230Z,3.20
2019-03-25T14:20:22.714Z,3.42
2019-03-25T14:22:49.310Z,4.10
2019-03-25T14:25:16.184Z,5.30
2019-03-25T14:27:42.852Z,4.53
2019-03-25T14:30:14.577Z,4.23
2019-03-25T14:32:38.174Z,5.03
2019-03-25T14:35:04.803Z,4.13
2019-03-25T14:37:34.743Z,5.05
2019-03-25T14:40:02.641Z,6.43
2019-03-25T14:42:32.056Z,8.68
2019-03-25T14:44:59.647Z,6.73
2019-03-25T14:47:27.182Z,5.00
2019-03-25T14:49:55.090Z,6.67
2019-03-25T14:52:22.772Z,4.30
2019-03-25T14:54:49.657Z,5.30
2019-03-25T14:57:17.475Z,4.20
2019-03-25T14:59:45.208Z,6.07
2019-03-25T15:02:11.914Z,4.60
2019-03-25T15:04:39.547Z,3.70
2019-03-25T15:07:07.811Z,4.60
2019-03-25T15:09:35.721Z,4.30
2019-03-25T15:12:02.611Z,3.83
2019-03-25T15:14:30.181Z,3.50
2019-03-25T15:16:57.500Z,5.47
2019-03-25T15:19:25.393Z,5.28
2019-03-25T15:21:53.072Z,5.47
2019-03-25T15:24:20.072Z,5.13
2019-03-25T15:26:47.661Z,8.03
2019-03-25T15:29:15.464Z,3.37
2019-03-25T15:31:42.935Z,3.80
2019-03-25T15:34:11.004Z,4.87
2019-03-25T15:36:37.783Z,3.20
2019-03-25T15:39:04.482Z,3.73
2019-03-25T15:41:32.085Z,5.53
2019-03-25T15:43:59.760Z,3.93
2019-03-25T15:46:26.560Z,3.57
2019-03-25T15:48:53.477Z,4.35
2019-03-25T15:51:21.122Z,4.87
2019-03-25T15:53:48.064Z,4.10
2019-03-25T15:56:14.928Z,4.13
2019-03-25T15:58:43.782Z,5.30
2019-03-25T16:01:12.555Z,4.37
2019-03-25T16:03:40.426Z,3.67
2019-03-25T16:06:08.786Z,6.40
2019-03-25T16:08:36.067Z,4.43
2019-03-25T16:11:03.899Z,3.30
2019-03-25T16:13:30.909Z,3.83
2019-03-25T16:15:59.277Z,4.87
2019-03-25T16:18:26.047Z,3.03
2019-03-25T16:20:53.718Z,3.60
2019-03-25T16:23:20.667Z,3.37
2019-03-25T16:25:48.297Z,2.80
2019-03-25T16:28:15.985Z,5.73
2019-03-25T16:30:44.953Z,3.27
2019-03-25T16:33:12.652Z,2.70
2019-03-25T16:35:41.804Z,4.05
2019-03-25T16:38:10.121Z,3.83
2019-03-25T16:40:53.045Z,2.90
2019-03-25T16:43:21.179Z,3.17
2019-03-25T16:45:47.887Z,4.40
2019-03-25T16:51:14.631Z,4.23
2019-03-25T16:53:41.408Z,3.63
2019-03-25T16:56:08.276Z,2.87
2019-03-25T16:58:35.206Z,5.33
2019-03-25T17:01:09.971Z,4.62
2019-03-25T17:03:30.707Z,3.10
2019-03-25T17:05:59.033Z,2.72
2019-03-25T17:08:26.018Z,6.97
2019-03-25T17:10:52.594Z,5.13
2019-03-25T17:13:19.499Z,4.00
2019-03-25T17:15:46.101Z,4.13
2019-03-25T17:18:12.719Z,5.33
2019-03-25T17:20:39.617Z,2.92
2019-03-25T17:23:06.301Z,3.67
2019-03-25T17:25:33.138Z,3.53
2019-03-25T17:28:00.141Z,3.90
2019-03-25T17:30:27.785Z,3.20
2019-03-25T17:32:55.835Z,3.27
2019-03-25T17:35:24.641Z,2.53
2019-03-25T17:37:51.259Z,3.20
2019-03-25T17:40:19.069Z,2.67
2019-03-25T17:42:45.684Z,2.37
2019-03-25T17:45:12.520Z,3.20
2019-03-25T17:47:39.455Z,2.43
2019-03-25T17:50:06.141Z,3.65
2019-03-25T17:52:32.983Z,2.40
2019-03-25T17:54:59.658Z,1.50
2019-03-25T17:57:27.038Z,1.77
2019-03-25T17:59:54.963Z,1.97
2019-03-25T18:02:24.833Z,3.10
2019-03-25T18:04:51.509Z,4.60
2019-03-25T18:07:19.243Z,3.90
2019-03-25T18:09:46.243Z,3.23
2019-03-25T18:12:13.008Z,2.47
2019-03-25T18:14:41.164Z,2.12
2019-03-25T18:17:08.809Z,1.70
2019-03-25T18:19:38.163Z,1.80
2019-03-25T18:22:04.939Z,2.00
2019-03-25T18:24:33.610Z,2.70
2019-03-25T18:27:04.088Z,1.50
2019-03-25T18:29:37.665Z,1.43
2019-03-25T18:31:59.219Z,1.60
2019-03-25T18:34:35.936Z,1.73
2019-03-25T18:37:05.124Z,1.70
2019-03-25T18:39:32.013Z,1.30
2019-03-25T18:42:04.452Z,1.40
2019-03-25T18:44:34.236Z,1.73
2019-03-25T18:47:02.930Z,1.20
2019-03-25T18:49:32.957Z,1.83
2019-03-25T18:51:59.972Z,1.57
2019-03-25T18:57:11.004Z,2.47
2019-03-25T18:59:40.730Z,1.47
2019-03-25T19:02:17.668Z,1.50
2019-03-25T19:05:09.152Z,1.53
2019-03-25T19:10:23.490Z,1.50
2019-03-25T19:13:14.180Z,2.97
2019-03-25T19:15:49.052Z,2.90
2019-03-25T19:18:15.388Z,1.67
2019-03-25T19:20:42.116Z,2.13
2019-03-25T19:23:08.749Z,1.70
2019-03-25T19:25:36.513Z,1.97
2019-03-25T19:28:03.443Z,1.63
2019-03-25T19:30:51.607Z,1.80
2019-03-25T19:33:18.377Z,1.60
2019-03-25T19:35:45.296Z,2.43
2019-03-25T19:38:12.021Z,2.43
2019-03-25T19:40:38.882Z,2.27
2019-03-25T19:43:05.491Z,2.58
2019-03-25T19:45:32.472Z,1.57
2019-03-25T19:47:59.195Z,1.57
2019-03-25T19:50:25.961Z,1.63
2019-03-25T19:52:52.603Z,1.67
2019-03-25T19:55:19.487Z,2.10
2019-03-25T19:57:46.403Z,1.40
2019-03-25T20:00:13.033Z,1.67
2019-03-25T20:02:39.939Z,2.23
2019-03-25T20:05:06.610Z,2.27
2019-03-25T20:07:33.371Z,1.50
2019-03-25T20:10:01.421Z,1.97
2019-03-25T20:12:28.236Z,2.23
2019-03-25T20:14:55.003Z,2.87
2019-03-25T20:17:21.705Z,1.87
2019-03-25T20:22:34.038Z,1.40
2019-03-25T20:25:00.929Z,1.57
2019-03-25T20:30:21.621Z,1.27
2019-03-25T20:32:50.436Z,1.63
2019-03-25T20:35:17.317Z,1.73
2019-03-25T20:37:44.418Z,1.50
2019-03-25T20:40:11.360Z,1.87
2019-03-25T20:42:38.009Z,2.80
2019-03-25T20:45:05.084Z,2.73
2019-03-25T20:47:31.653Z,1.70
2019-03-25T20:49:58.528Z,1.50
2019-03-25T20:52:25.622Z,1.52
2019-03-25T20:54:52.377Z,1.50
2019-03-25T20:57:19.043Z,2.00
2019-03-25T20:59:45.666Z,1.70
2019-03-25T21:02:12.360Z,1.60
2019-03-25T21:04:40.270Z,1.30
2019-03-25T21:07:06.868Z,1.50
2019-03-25T21:09:33.525Z,3.90
2019-03-25T21:12:00.509Z,1.43
2019-03-25T21:14:27.134Z,1.63
2019-03-25T21:16:54.107Z,1.42
2019-03-25T21:19:20.654Z,1.50
2019-03-25T21:21:48.120Z,1.30
2019-03-25T21:24:14.757Z,1.40
2019-03-25T21:26:41.530Z,1.40
2019-03-25T21:29:08.163Z,1.43
2019-03-25T21:31:34.796Z,1.67
2019-03-25T21:34:03.059Z,1.64
2019-03-25T21:36:30.419Z,1.27
2019-03-25T21:38:57.351Z,1.40
2019-03-25T21:41:24.259Z,1.72
2019-03-25T21:43:51.162Z,1.90
2019-03-25T21:46:18.403Z,1.50
2019-03-25T21:48:45.566Z,1.70
2019-03-25T21:51:12.297Z,1.60
2019-03-25T21:53:38.867Z,1.67
2019-03-25T21:56:05.649Z,2.67
2019-03-25T21:58:33.331Z,1.60
2019-03-25T22:01:00.315Z,1.30
2019-03-25T22:03:26.860Z,2.37
2019-03-25T22:05:54.039Z,1.60
2019-03-25T22:08:20.869Z,2.00
2019-03-25T22:10:47.738Z,1.37
2019-03-25T22:13:14.975Z,1.53
2019-03-25T22:15:41.783Z,1.47
2019-03-25T22:18:08.475Z,1.40
2019-03-25T22:20:36.537Z,1.37
2019-03-25T22:23:03.208Z,1.60
2019-03-25T22:25:29.792Z,1.30
2019-03-25T22:27:56.423Z,1.40
2019-03-25T22:30:25.829Z,1.43
2019-03-25T22:32:51.465Z,1.47
2019-03-25T22:35:19.238Z,1.10
2019-03-25T22:37:46.197Z,1.37
2019-03-25T22:40:12.802Z,1.30
2019-03-25T22:42:39.681Z,1.20
2019-03-25T22:45:06.276Z,1.20
2019-03-25T22:47:33.242Z,1.65
2019-03-25T22:49:59.857Z,1.17
2019-03-25T22:52:26.435Z,1.10
2019-03-25T22:54:53.370Z,1.20
2019-03-25T22:57:20.534Z,1.13
2019-03-25T22:59:47.458Z,1.22
2019-03-25T23:02:14.253Z,1.13
2019-03-25T23:04:40.899Z,1.27
2019-03-25T23:07:07.484Z,1.35
2019-03-25T23:09:34.819Z,1.30
2019-03-25T23:12:01.828Z,1.20
2019-03-25T23:14:28.497Z,1.30
2019-03-25T23:16:55.452Z,1.25
2019-03-25T23:19:22.078Z,0.93
2019-03-25T23:21:48.662Z,1.53
2019-03-25T23:24:15.255Z,1.30
2019-03-25T23:26:41.996Z,2.20
2019-03-25T23:29:08.664Z,2.90
2019-03-25T23:31:35.604Z,1.40
2019-03-25T23:34:02.232Z,1.37
2019-03-25T23:36:29.178Z,1.20
2019-03-25T23:38:55.846Z,1.07
2019-03-25T23:41:22.507Z,1.20
2019-03-25T23:43:49.399Z,1.20
2019-03-25T23:46:16.024Z,1.93
2019-03-25T23:48:42.964Z,1.40
2019-03-25T23:51:10.011Z,1.53
2019-03-25T23:53:36.659Z,1.07
2019-03-25T23:56:03.818Z,2.40
2019-03-25T23:58:30.735Z,1.10
